createdAt,value
2023-04-09T00:00:35.353Z,4.31
2023-04-09T00:02:36.929Z,4.29
2023-04-09T00:04:38.374Z,4.28
2023-04-09T00:06:39.878Z,4.26
2023-04-09T00:08:41.478Z,4.24
2023-04-09T00:10:42.854Z,4.25
2023-04-09T00:12:44.279Z,4.22
2023-04-09T00:14:45.691Z,4.21
2023-04-09T00:16:47.072Z,4.19
2023-04-09T00:18:48.557Z,4.16
2023-04-09T00:20:50.390Z,4.15
2023-04-09T00:22:52.280Z,4.14
2023-04-09T00:24:53.788Z,4.13
2023-04-09T00:26:55.591Z,4.11
2023-04-09T00:28:57.178Z,4.11
2023-04-09T00:30:58.562Z,4.09
2023-04-09T00:32:59.994Z,4.06
2023-04-09T00:35:01.850Z,4.06
2023-04-09T00:37:03.290Z,4.06
2023-04-09T00:39:04.736Z,4.03
2023-04-09T00:41:06.214Z,4.01
2023-04-09T00:43:07.602Z,3.98
2023-04-09T00:45:09.328Z,3.97
2023-04-09T00:47:10.732Z,3.95
2023-04-09T00:49:12.260Z,3.93
2023-04-09T00:51:13.624Z,3.92
2023-04-09T00:53:16.164Z,3.89
2023-04-09T00:55:18.558Z,3.88
2023-04-09T00:57:20.277Z,3.84
2023-04-09T00:59:21.769Z,3.81
2023-04-09T01:01:24.129Z,3.80
2023-04-09T01:03:25.853Z,3.79
2023-04-09T01:05:34.283Z,3.75
2023-04-09T01:08:01.593Z,3.71
2023-04-09T01:10:16.279Z,3.68
2023-04-09T01:12:31.424Z,3.64
2023-04-09T01:14:45.764Z,3.60
2023-04-09T01:16:54.422Z,3.61
2023-04-09T01:19:04.263Z,3.58
2023-04-09T01:21:33.579Z,3.55
2023-04-09T01:23:46.759Z,3.51
2023-04-09T01:25:57.114Z,3.44
2023-04-09T01:28:33.070Z,3.44
2023-04-09T01:30:35.262Z,3.39
2023-04-09T01:32:38.836Z,3.38
2023-04-09T01:34:42.522Z,3.34
2023-04-09T01:36:50.208Z,3.32
2023-04-09T01:38:52.695Z,3.30
2023-04-09T01:40:55.873Z,3.28
2023-04-09T01:42:58.932Z,3.25
2023-04-09T01:45:01.534Z,3.25
2023-04-09T01:47:03.723Z,3.22
2023-04-09T01:49:05.828Z,3.19
2023-04-09T01:51:07.258Z,3.19
2023-04-09T01:53:09.073Z,3.17
2023-04-09T01:55:10.473Z,3.15
2023-04-09T01:57:11.865Z,3.11
2023-04-09T01:59:14.372Z,3.11
2023-04-09T02:01:55.463Z,3.08
2023-04-09T02:04:01.135Z,3.05
2023-04-09T02:06:09.192Z,3.03
2023-04-09T02:08:13.459Z,3.02
2023-04-09T02:10:17.261Z,2.97
2023-04-09T02:12:19.160Z,2.94
2023-04-09T02:14:26.544Z,2.93
2023-04-09T02:16:29.055Z,2.91
2023-04-09T02:18:30.972Z,2.87
2023-04-09T02:20:32.372Z,2.85
2023-04-09T02:22:33.802Z,2.87
2023-04-09T02:24:35.251Z,2.84
2023-04-09T02:26:36.648Z,2.83
2023-04-09T02:28:38.169Z,2.80
2023-04-09T02:30:39.568Z,2.80
2023-04-09T02:32:41.010Z,2.79
2023-04-09T02:34:42.471Z,2.77
2023-04-09T02:36:43.844Z,2.74
2023-04-09T02:38:45.491Z,2.73
2023-04-09T02:40:46.896Z,2.74
2023-04-09T02:42:48.304Z,2.71
2023-04-09T02:44:49.692Z,2.69
2023-04-09T02:46:54.428Z,2.66
2023-04-09T02:48:55.827Z,2.66
2023-04-09T02:50:58.458Z,2.62
2023-04-09T02:53:00.079Z,2.60
2023-04-09T02:55:01.734Z,2.60
2023-04-09T02:57:03.261Z,2.57
2023-04-09T02:59:04.614Z,2.56
2023-04-09T03:01:08.510Z,2.55
2023-04-09T03:03:10.251Z,2.50
2023-04-09T03:05:11.910Z,2.47
2023-04-09T03:07:13.344Z,2.46
2023-04-09T03:09:14.757Z,2.42
2023-04-09T03:11:16.166Z,2.38
2023-04-09T03:13:17.599Z,2.37
2023-04-09T03:15:19.055Z,2.34
2023-04-09T03:17:20.570Z,2.31
2023-04-09T03:19:21.953Z,2.29
2023-04-09T03:21:23.347Z,2.25
2023-04-09T03:23:24.714Z,2.22
2023-04-09T03:25:26.108Z,2.16
2023-04-09T03:27:27.608Z,2.13
2023-04-09T03:29:28.993Z,2.11
2023-04-09T03:31:30.980Z,2.07
2023-04-09T03:33:32.406Z,2.01
2023-04-09T03:35:33.812Z,1.96
2023-04-09T03:37:35.826Z,1.96
2023-04-09T03:39:37.229Z,1.94
2023-04-09T03:41:38.625Z,1.91
2023-04-09T03:43:40.030Z,1.89
2023-04-09T03:45:41.415Z,1.84
2023-04-09T03:47:42.825Z,1.82
2023-04-09T03:49:44.221Z,1.78
2023-04-09T03:51:45.733Z,1.74
2023-04-09T03:53:47.144Z,1.71
2023-04-09T03:55:48.497Z,1.70
2023-04-09T03:57:49.867Z,1.70
2023-04-09T03:59:51.292Z,1.66
2023-04-09T04:01:52.779Z,1.69
2023-04-09T04:03:54.398Z,1.69
2023-04-09T04:06:03.678Z,1.69
2023-04-09T04:08:05.204Z,1.69
2023-04-09T04:10:07.188Z,1.68
2023-04-09T04:12:09.245Z,1.68
2023-04-09T04:14:10.640Z,1.70
2023-04-09T04:16:12.050Z,1.69
2023-04-09T04:18:13.472Z,1.67
2023-04-09T04:20:14.969Z,1.64
2023-04-09T04:22:16.470Z,1.58
2023-04-09T04:24:17.874Z,1.53
2023-04-09T04:26:19.447Z,1.52
2023-04-09T04:28:20.846Z,1.52
2023-04-09T04:30:22.527Z,1.50
2023-04-09T04:32:23.969Z,1.48
2023-04-09T04:34:25.548Z,1.44
2023-04-09T04:36:26.979Z,1.38
2023-04-09T04:38:28.363Z,1.39
2023-04-09T04:40:29.791Z,1.33
2023-04-09T04:42:31.221Z,1.35
2023-04-09T04:44:32.607Z,1.31
2023-04-09T04:46:34.022Z,1.30
2023-04-09T04:48:35.430Z,1.28
2023-04-09T04:50:36.790Z,1.27
2023-04-09T04:52:40.277Z,1.24
2023-04-09T04:54:41.753Z,1.22
2023-04-09T04:56:43.275Z,1.20
2023-04-09T04:58:44.868Z,1.18
2023-04-09T05:00:46.905Z,1.17
2023-04-09T05:02:48.431Z,1.16
2023-04-09T05:04:50.113Z,1.15
2023-04-09T05:06:51.563Z,1.16
2023-04-09T05:08:53.115Z,1.15
2023-04-09T05:10:56.144Z,1.15
2023-04-09T05:12:57.605Z,1.17
2023-04-09T05:14:59.158Z,1.18
2023-04-09T05:17:00.684Z,1.21
2023-04-09T05:19:02.193Z,1.20
2023-04-09T05:21:03.729Z,1.22
2023-04-09T05:23:05.163Z,1.27
2023-04-09T05:25:07.329Z,1.29
2023-04-09T05:27:08.762Z,1.31
2023-04-09T05:29:10.270Z,1.35
2023-04-09T05:31:13.401Z,1.43
2023-04-09T05:33:14.987Z,1.42
2023-04-09T05:35:16.402Z,1.43
2023-04-09T05:37:17.830Z,1.48
2023-04-09T05:39:19.219Z,1.53
2023-04-09T05:41:20.598Z,1.55
2023-04-09T05:43:22.228Z,1.59
2023-04-09T05:45:23.689Z,1.63
2023-04-09T05:47:25.163Z,1.67
2023-04-09T05:49:26.536Z,1.69
2023-04-09T05:51:27.943Z,1.74
2023-04-09T05:53:29.426Z,1.76
2023-04-09T05:55:34.115Z,1.81
2023-04-09T05:57:35.478Z,1.88
2023-04-09T05:59:36.881Z,1.91
2023-04-09T06:01:38.294Z,1.94
2023-04-09T06:03:40.060Z,2.01
2023-04-09T06:05:41.653Z,2.07
2023-04-09T06:07:43.044Z,2.12
2023-04-09T06:09:45.002Z,2.15
2023-04-09T06:11:46.416Z,2.24
2023-04-09T06:13:47.870Z,2.29
2023-04-09T06:15:49.322Z,2.33
2023-04-09T06:17:50.898Z,2.38
2023-04-09T06:19:52.328Z,2.43
2023-04-09T06:21:53.712Z,2.50
2023-04-09T06:23:55.203Z,2.56
2023-04-09T06:25:56.582Z,2.60
2023-04-09T06:27:58.012Z,2.66
2023-04-09T06:29:59.390Z,2.71
2023-04-09T06:32:00.798Z,2.76
2023-04-09T06:34:02.229Z,2.83
2023-04-09T06:36:03.883Z,2.89
2023-04-09T06:38:05.396Z,2.96
2023-04-09T06:40:07.953Z,3.05
2023-04-09T06:42:09.361Z,3.11
2023-04-09T06:44:10.739Z,3.18
2023-04-09T06:46:13.492Z,3.25
2023-04-09T06:48:14.873Z,3.32
2023-04-09T06:50:16.552Z,3.40
2023-04-09T06:52:17.940Z,3.48
2023-04-09T06:54:20.132Z,3.53
2023-04-09T06:56:21.536Z,3.62
2023-04-09T06:58:23.012Z,3.67
2023-04-09T07:00:24.420Z,3.70
2023-04-09T07:02:26.377Z,3.80
2023-04-09T07:04:28.119Z,3.89
2023-04-09T07:06:29.676Z,3.95
2023-04-09T07:08:31.158Z,4.02
2023-04-09T07:10:32.649Z,4.10
2023-04-09T07:12:35.482Z,4.20
2023-04-09T07:14:36.976Z,4.28
2023-04-09T07:16:38.505Z,4.35
2023-04-09T07:18:40.171Z,4.42
2023-04-09T07:20:41.588Z,4.51
2023-04-09T07:22:43.007Z,4.61
2023-04-09T07:24:44.366Z,4.70
2023-04-09T07:26:45.760Z,4.79
2023-04-09T07:28:47.314Z,4.90
2023-04-09T07:30:48.677Z,4.95
2023-04-09T07:32:50.506Z,5.04
2023-04-09T07:34:52.903Z,5.13
2023-04-09T07:36:54.300Z,5.25
2023-04-09T07:38:56.147Z,5.34
2023-04-09T07:40:58.389Z,5.47
2023-04-09T07:42:59.806Z,5.58
2023-04-09T07:45:01.253Z,5.61
2023-04-09T07:47:03.918Z,5.69
2023-04-09T07:49:05.840Z,5.79
2023-04-09T07:51:07.249Z,5.93
2023-04-09T07:53:08.621Z,6.04
2023-04-09T07:55:10.096Z,6.15
2023-04-09T07:57:11.569Z,6.23
2023-04-09T07:59:15.253Z,6.32
2023-04-09T08:01:16.981Z,6.46
2023-04-09T08:05:20.868Z,6.60
2023-04-09T08:07:22.360Z,6.71
2023-04-09T08:09:23.821Z,6.83
2023-04-09T08:11:25.933Z,6.89
2023-04-09T08:13:27.421Z,7.03
2023-04-09T08:15:28.931Z,7.08
2023-04-09T08:17:30.812Z,7.17
2023-04-09T08:19:32.333Z,7.32
2023-04-09T08:21:33.982Z,7.55
2023-04-09T08:23:35.375Z,7.55
2023-04-09T08:25:37.806Z,7.62
2023-04-09T08:27:39.682Z,7.74
2023-04-09T08:29:42.562Z,7.93
2023-04-09T08:31:44.277Z,8.00
2023-04-09T08:33:46.149Z,8.06
2023-04-09T08:35:47.537Z,8.19
2023-04-09T08:37:49.176Z,8.22
2023-04-09T08:39:50.902Z,8.34
2023-04-09T08:41:52.397Z,8.40
2023-04-09T08:43:58.819Z,8.47
2023-04-09T08:46:03.123Z,8.64
2023-04-09T08:48:05.667Z,8.71
2023-04-09T08:50:07.501Z,8.87
2023-04-09T08:52:08.946Z,8.92
2023-04-09T08:54:10.421Z,9.07
2023-04-09T08:56:13.764Z,9.08
2023-04-09T08:58:15.114Z,9.20
2023-04-09T09:00:16.527Z,9.38
2023-04-09T09:02:17.956Z,9.46
2023-04-09T09:04:19.718Z,9.38
2023-04-09T09:06:22.449Z,9.28
2023-04-09T09:08:25.500Z,9.21
2023-04-09T09:10:44.325Z,9.39
2023-04-09T09:12:45.731Z,9.53
2023-04-09T09:14:47.150Z,9.88
2023-04-09T09:16:57.839Z,9.75
2023-04-09T09:19:00.313Z,9.77
2023-04-09T09:21:19.424Z,9.65
2023-04-09T09:23:34.784Z,9.79
2023-04-09T09:25:42.593Z,9.81
2023-04-09T09:27:44.061Z,9.95
2023-04-09T09:29:45.498Z,10.09
2023-04-09T09:31:52.582Z,10.20
2023-04-09T09:33:54.173Z,10.36
2023-04-09T09:35:57.605Z,10.62
2023-04-09T09:38:05.260Z,11.20
2023-04-09T09:40:07.824Z,11.34
2023-04-09T09:42:09.275Z,11.24
2023-04-09T09:44:12.813Z,10.96
2023-04-09T09:46:15.581Z,11.10
2023-04-09T09:48:17.075Z,11.10
2023-04-09T09:50:18.960Z,10.89
2023-04-09T09:52:30.178Z,11.06
2023-04-09T09:54:41.019Z,11.23
2023-04-09T09:56:43.940Z,11.49
2023-04-09T09:58:54.730Z,11.23
2023-04-09T10:00:57.831Z,11.18
2023-04-09T10:03:15.986Z,11.16
2023-04-09T10:05:17.563Z,11.26
2023-04-09T10:07:20.945Z,11.69
2023-04-09T10:09:27.750Z,11.91
2023-04-09T10:11:29.266Z,12.01
2023-04-09T10:13:43.596Z,11.74
2023-04-09T10:15:45.891Z,11.65
2023-04-09T10:17:48.027Z,11.59
2023-04-09T10:19:58.445Z,11.59
2023-04-09T10:22:07.951Z,11.61
2023-04-09T10:24:10.381Z,11.77
2023-04-09T10:26:11.784Z,11.74
2023-04-09T10:28:19.432Z,12.06
2023-04-09T10:30:39.072Z,11.94
2023-04-09T10:32:40.556Z,11.93
2023-04-09T10:34:43.783Z,12.00
2023-04-09T10:36:49.565Z,12.01
2023-04-09T10:38:51.479Z,12.21
2023-04-09T10:40:53.319Z,12.17
2023-04-09T10:42:56.062Z,12.03
2023-04-09T10:45:07.725Z,12.01
2023-04-09T10:47:10.713Z,12.28
2023-04-09T10:49:15.330Z,12.40
2023-04-09T10:51:19.798Z,12.60
2023-04-09T10:53:25.669Z,13.02
2023-04-09T10:55:41.478Z,13.07
2023-04-09T10:57:43.016Z,13.05
2023-04-09T10:59:46.697Z,12.82
2023-04-09T11:01:54.664Z,12.81
2023-04-09T11:04:13.702Z,13.06
2023-04-09T11:06:19.976Z,13.63
2023-04-09T11:08:22.142Z,13.54
2023-04-09T11:10:23.679Z,13.37
2023-04-09T11:12:25.065Z,13.25
2023-04-09T11:14:27.316Z,13.59
2023-04-09T11:16:31.843Z,13.87
2023-04-09T11:18:34.957Z,14.32
2023-04-09T11:20:36.761Z,14.55
2023-04-09T11:22:38.398Z,14.64
2023-04-09T11:24:43.764Z,14.30
2023-04-09T11:26:45.878Z,14.20
2023-04-09T11:28:47.366Z,14.56
2023-04-09T11:30:51.256Z,14.69
2023-04-09T11:32:52.734Z,14.78
2023-04-09T11:34:54.147Z,14.79
2023-04-09T11:36:56.874Z,14.96
2023-04-09T11:38:59.108Z,15.11
2023-04-09T11:41:01.742Z,15.34
2023-04-09T11:43:03.185Z,14.89
2023-04-09T11:45:05.163Z,15.22
2023-04-09T11:47:08.745Z,15.02
2023-04-09T11:49:10.383Z,14.93
2023-04-09T11:51:11.902Z,14.75
2023-04-09T11:53:20.624Z,14.78
2023-04-09T11:55:29.510Z,15.05
2023-04-09T11:57:47.243Z,15.44
2023-04-09T11:59:48.651Z,15.45
2023-04-09T12:01:51.363Z,15.25
2023-04-09T12:03:54.497Z,15.32
2023-04-09T12:05:56.322Z,15.52
2023-04-09T12:08:03.129Z,15.68
2023-04-09T12:10:06.473Z,15.84
2023-04-09T12:12:08.880Z,15.57
2023-04-09T12:14:16.085Z,15.82
2023-04-09T12:16:21.266Z,15.65
2023-04-09T12:18:23.464Z,15.68
2023-04-09T12:20:32.754Z,15.84
2023-04-09T12:22:34.192Z,15.61
2023-04-09T12:24:35.771Z,15.72
2023-04-09T12:26:37.180Z,15.80
2023-04-09T12:28:38.572Z,15.79
2023-04-09T12:30:40.425Z,15.88
2023-04-09T12:32:44.651Z,16.15
2023-04-09T12:34:47.379Z,16.25
2023-04-09T12:36:48.780Z,16.23
2023-04-09T12:38:50.550Z,16.33
2023-04-09T12:40:52.139Z,16.23
2023-04-09T12:42:54.086Z,16.23
2023-04-09T12:44:55.494Z,16.08
2023-04-09T12:46:56.850Z,16.27
2023-04-09T12:48:58.396Z,16.33
2023-04-09T12:50:59.773Z,15.98
2023-04-09T12:53:01.285Z,16.22
2023-04-09T12:55:04.202Z,16.51
2023-04-09T12:57:06.368Z,16.38
2023-04-09T12:59:07.769Z,16.33
2023-04-09T13:01:09.253Z,16.42
2023-04-09T13:03:11.717Z,16.36
2023-04-09T13:05:13.420Z,16.19
2023-04-09T13:07:17.290Z,16.20
2023-04-09T13:09:18.740Z,16.30
2023-04-09T13:11:20.358Z,16.51
2023-04-09T13:13:21.945Z,16.51
2023-04-09T13:15:23.471Z,16.44
2023-04-09T13:17:25.049Z,16.63
2023-04-09T13:19:26.423Z,16.99
2023-04-09T13:21:27.873Z,17.04
2023-04-09T13:23:29.380Z,16.87
2023-04-09T13:25:30.812Z,17.01
2023-04-09T13:27:32.255Z,17.49
2023-04-09T13:29:33.664Z,17.86
2023-04-09T13:31:37.988Z,18.17
2023-04-09T13:33:39.386Z,17.87
2023-04-09T13:35:40.827Z,17.53
2023-04-09T13:37:42.282Z,17.04
2023-04-09T13:39:44.716Z,17.34
2023-04-09T13:41:46.149Z,17.23
2023-04-09T13:43:47.522Z,17.01
2023-04-09T13:45:49.760Z,16.82
2023-04-09T13:47:51.284Z,16.80
2023-04-09T13:49:53.123Z,16.88
2023-04-09T13:51:55.668Z,17.17
2023-04-09T13:53:57.611Z,17.34
2023-04-09T13:55:59.021Z,17.37
2023-04-09T13:58:00.387Z,17.10
2023-04-09T14:00:04.445Z,17.00
2023-04-09T14:02:05.988Z,16.97
2023-04-09T14:04:08.119Z,16.99
2023-04-09T14:06:09.970Z,16.76
2023-04-09T14:08:12.041Z,16.85
2023-04-09T14:10:13.456Z,16.88
2023-04-09T14:12:14.826Z,16.99
2023-04-09T14:14:16.648Z,16.74
2023-04-09T14:16:19.608Z,16.76
2023-04-09T14:18:21.338Z,16.68
2023-04-09T14:20:24.504Z,16.23
2023-04-09T14:22:28.577Z,16.46
2023-04-09T14:24:30.094Z,16.79
2023-04-09T14:26:31.761Z,16.96
2023-04-09T14:28:33.162Z,17.05
2023-04-09T14:30:34.579Z,17.01
2023-04-09T14:32:36.176Z,17.30
2023-04-09T14:34:37.607Z,17.95
2023-04-09T14:36:38.987Z,18.03
2023-04-09T14:38:40.380Z,18.13
2023-04-09T14:40:42.194Z,18.27
2023-04-09T14:42:43.602Z,18.49
2023-04-09T14:44:45.305Z,18.38
2023-04-09T14:46:46.785Z,18.61
2023-04-09T14:48:48.229Z,18.29
2023-04-09T14:50:51.572Z,18.03
2023-04-09T14:52:53.181Z,17.85
2023-04-09T14:54:54.554Z,17.23
2023-04-09T14:56:58.180Z,17.76
2023-04-09T14:58:59.939Z,17.75
2023-04-09T15:01:01.396Z,17.76
2023-04-09T15:03:03.959Z,17.60
2023-04-09T15:05:05.970Z,17.31
2023-04-09T15:07:07.397Z,17.27
2023-04-09T15:09:09.022Z,17.12
2023-04-09T15:11:15.592Z,17.03
2023-04-09T15:13:17.022Z,17.12
2023-04-09T15:15:18.402Z,17.46
2023-04-09T15:17:19.910Z,19.59
2023-04-09T15:19:21.362Z,22.25
2023-04-09T15:21:23.134Z,24.61
2023-04-09T15:23:24.559Z,26.46
2023-04-09T15:25:26.155Z,29.84
2023-04-09T15:27:27.596Z,29.89
2023-04-09T15:29:28.999Z,31.16
2023-04-09T15:31:30.790Z,31.03
2023-04-09T15:33:32.475Z,32.63
2023-04-09T15:35:34.953Z,34.68
2023-04-09T15:37:36.389Z,34.65
2023-04-09T15:39:38.076Z,31.67
2023-04-09T15:41:39.481Z,32.46
2023-04-09T15:43:40.842Z,31.73
2023-04-09T15:45:42.273Z,32.38
2023-04-09T15:47:44.738Z,30.08
2023-04-09T15:49:46.243Z,31.00
2023-04-09T15:51:48.198Z,33.86
2023-04-09T15:53:49.669Z,35.87
2023-04-09T15:55:51.198Z,36.57
2023-04-09T15:57:53.033Z,37.27
2023-04-09T15:59:54.452Z,37.19
2023-04-09T16:01:56.108Z,37.96
2023-04-09T16:03:57.602Z,35.41
2023-04-09T16:06:01.529Z,33.23
2023-04-09T16:08:03.456Z,34.89
2023-04-09T16:10:05.296Z,36.92
2023-04-09T16:12:06.954Z,40.07
2023-04-09T16:14:09.210Z,40.86
2023-04-09T16:16:10.606Z,41.83
2023-04-09T16:18:12.075Z,42.52
2023-04-09T16:20:13.548Z,40.82
2023-04-09T16:22:14.959Z,40.96
2023-04-09T16:24:16.399Z,40.33
2023-04-09T16:26:17.810Z,39.31
2023-04-09T16:28:21.879Z,38.54
2023-04-09T16:30:23.366Z,37.86
2023-04-09T16:32:25.361Z,37.35
2023-04-09T16:34:26.830Z,35.15
2023-04-09T16:36:29.466Z,31.09
2023-04-09T16:38:31.236Z,28.32
2023-04-09T16:40:33.015Z,26.89
2023-04-09T16:42:34.608Z,25.48
2023-04-09T16:44:36.189Z,24.57
2023-04-09T16:46:37.616Z,23.62
2023-04-09T16:48:41.669Z,22.35
2023-04-09T16:50:43.141Z,22.07
2023-04-09T16:52:44.749Z,21.41
2023-04-09T16:54:46.204Z,20.72
2023-04-09T16:56:48.732Z,20.43
2023-04-09T16:58:50.240Z,19.66
2023-04-09T17:00:52.166Z,19.40
2023-04-09T17:02:55.547Z,19.82
2023-04-09T17:04:57.590Z,19.65
2023-04-09T17:06:59.330Z,19.17
2023-04-09T17:09:01.433Z,19.00
2023-04-09T17:11:03.132Z,18.78
2023-04-09T17:13:04.616Z,18.15
2023-04-09T17:15:06.553Z,17.87
2023-04-09T17:17:08.705Z,17.51
2023-04-09T17:19:10.663Z,17.10
2023-04-09T17:21:12.544Z,16.75
2023-04-09T17:23:14.637Z,16.67
2023-04-09T17:25:16.355Z,16.32
2023-04-09T17:27:19.587Z,16.15
2023-04-09T17:29:21.299Z,15.99
2023-04-09T17:31:24.329Z,15.86
2023-04-09T17:33:26.324Z,15.65
2023-04-09T17:35:27.752Z,15.27
2023-04-09T17:37:29.194Z,15.11
2023-04-09T17:39:31.140Z,14.84
2023-04-09T17:41:32.610Z,14.60
2023-04-09T17:43:34.000Z,14.54
2023-04-09T17:45:35.612Z,14.41
2023-04-09T17:47:37.209Z,14.32
2023-04-09T17:49:39.250Z,14.00
2023-04-09T17:51:40.677Z,13.91
2023-04-09T17:53:42.364Z,13.73
2023-04-09T17:55:50.897Z,13.51
2023-04-09T17:57:52.434Z,13.34
2023-04-09T17:59:53.862Z,13.25
2023-04-09T18:01:56.632Z,13.05
2023-04-09T18:03:59.266Z,12.94
2023-04-09T18:06:00.951Z,12.82
2023-04-09T18:08:02.484Z,12.69
2023-04-09T18:10:04.549Z,12.57
2023-04-09T18:12:06.226Z,12.34
2023-04-09T18:14:08.026Z,12.22
2023-04-09T18:16:10.682Z,12.07
2023-04-09T18:18:12.191Z,11.99
2023-04-09T18:20:15.504Z,11.88
2023-04-09T18:22:17.121Z,11.75
2023-04-09T18:24:18.573Z,11.60
2023-04-09T18:26:20.046Z,11.46
2023-04-09T18:28:21.736Z,11.35
2023-04-09T18:30:23.223Z,11.21
2023-04-09T18:32:25.449Z,11.11
2023-04-09T18:34:26.988Z,11.03
2023-04-09T18:36:28.984Z,10.94
2023-04-09T18:38:30.552Z,10.81
2023-04-09T18:40:32.047Z,10.76
2023-04-09T18:42:33.565Z,10.62
2023-04-09T18:44:36.254Z,10.58
2023-04-09T18:46:37.784Z,10.41
2023-04-09T18:48:39.518Z,10.33
2023-04-09T18:50:41.389Z,10.24
2023-04-09T18:52:42.825Z,10.15
2023-04-09T18:54:44.303Z,10.10
2023-04-09T18:56:46.642Z,9.95
2023-04-09T18:58:48.859Z,9.89
2023-04-09T19:00:52.855Z,9.84
2023-04-09T19:02:54.729Z,9.72
2023-04-09T19:04:56.409Z,9.63
2023-04-09T19:06:58.078Z,9.55
2023-04-09T19:08:59.569Z,9.53
2023-04-09T19:11:01.006Z,9.46
2023-04-09T19:13:03.035Z,9.37
2023-04-09T19:15:06.078Z,9.28
2023-04-09T19:17:07.734Z,9.21
2023-04-09T19:19:09.454Z,9.14
2023-04-09T19:21:10.945Z,9.11
2023-04-09T19:23:12.359Z,9.04
2023-04-09T19:25:14.699Z,8.98
2023-04-09T19:27:18.034Z,8.90
2023-04-09T19:29:19.944Z,8.85
2023-04-09T19:31:22.269Z,8.78
2023-04-09T19:33:25.345Z,8.71
2023-04-09T19:35:26.775Z,8.67
2023-04-09T19:37:30.191Z,8.62
2023-04-09T19:39:31.679Z,8.57
2023-04-09T19:41:33.162Z,8.52
2023-04-09T19:43:39.295Z,8.44
2023-04-09T19:45:42.625Z,8.39
2023-04-09T19:47:44.106Z,8.32
2023-04-09T19:49:45.877Z,8.26
2023-04-09T19:51:47.651Z,8.20
2023-04-09T19:53:49.374Z,8.18
2023-04-09T19:55:51.551Z,8.12
2023-04-09T19:57:53.115Z,8.08
2023-04-09T19:59:55.077Z,8.03
2023-04-09T20:01:57.099Z,7.99
2023-04-09T20:03:58.755Z,7.91
2023-04-09T20:06:00.417Z,7.87
2023-04-09T20:08:01.842Z,7.84
2023-04-09T20:10:03.774Z,7.79
2023-04-09T20:12:06.966Z,7.74
2023-04-09T20:14:08.576Z,7.70
2023-04-09T20:16:10.315Z,7.64
2023-04-09T20:18:12.308Z,7.61
2023-04-09T20:20:14.365Z,7.57
2023-04-09T20:22:16.266Z,7.49
2023-04-09T20:24:17.951Z,7.46
2023-04-09T20:26:19.367Z,7.48
2023-04-09T20:28:21.028Z,7.46
2023-04-09T20:30:22.694Z,7.38
2023-04-09T20:32:24.446Z,7.32
2023-04-09T20:34:29.362Z,7.32
2023-04-09T20:36:30.981Z,7.30
2023-04-09T20:38:32.696Z,7.24
2023-04-09T20:40:36.999Z,7.21
2023-04-09T20:42:41.796Z,7.17
2023-04-09T20:44:43.390Z,7.16
2023-04-09T20:46:44.966Z,7.14
2023-04-09T20:48:46.535Z,7.09
2023-04-09T20:50:48.013Z,7.06
2023-04-09T20:52:49.721Z,7.01
2023-04-09T20:54:51.611Z,6.96
2023-04-09T20:56:53.346Z,6.93
2023-04-09T20:58:55.087Z,6.91
2023-04-09T21:01:08.322Z,6.89
2023-04-09T21:03:11.746Z,6.84
2023-04-09T21:05:22.464Z,6.79
2023-04-09T21:07:25.912Z,6.73
2023-04-09T21:09:27.417Z,6.67
2023-04-09T21:11:29.349Z,6.64
2023-04-09T21:13:35.787Z,6.59
2023-04-09T21:15:48.745Z,6.59
2023-04-09T21:17:50.276Z,6.56
2023-04-09T21:19:53.170Z,6.51
2023-04-09T21:21:54.721Z,6.50
2023-04-09T21:23:56.114Z,6.46
2023-04-09T21:25:57.581Z,6.42
2023-04-09T21:27:59.296Z,6.39
2023-04-09T21:30:00.719Z,6.35
2023-04-09T21:32:02.506Z,6.34
2023-04-09T21:34:04.529Z,6.30
2023-04-09T21:36:07.780Z,6.31
2023-04-09T21:38:09.468Z,6.31
2023-04-09T21:40:11.053Z,6.27
2023-04-09T21:42:12.565Z,6.24
2023-04-09T21:44:14.329Z,6.21
2023-04-09T21:46:16.106Z,6.19
2023-04-09T21:48:17.650Z,6.17
2023-04-09T21:50:19.559Z,6.13
2023-04-09T21:52:21.004Z,6.08
2023-04-09T21:54:22.501Z,6.05
2023-04-09T21:56:23.906Z,6.03
2023-04-09T21:58:25.316Z,6.04
2023-04-09T22:00:27.572Z,6.02
2023-04-09T22:02:29.112Z,5.98
2023-04-09T22:04:30.923Z,5.96
2023-04-09T22:06:32.500Z,5.93
2023-04-09T22:08:38.491Z,5.91
2023-04-09T22:10:47.433Z,5.87
2023-04-09T22:12:49.905Z,5.83
2023-04-09T22:14:52.207Z,5.81
2023-04-09T22:16:54.924Z,5.78
2023-04-09T22:18:56.888Z,5.73
2023-04-09T22:20:58.727Z,5.71
2023-04-09T22:23:00.162Z,5.68
2023-04-09T22:25:01.754Z,5.66
2023-04-09T22:27:03.216Z,5.68
2023-04-09T22:29:06.838Z,5.65
2023-04-09T22:31:08.568Z,5.62
2023-04-09T22:33:10.619Z,5.58
2023-04-09T22:35:17.833Z,5.56
2023-04-09T22:37:19.208Z,5.53
2023-04-09T22:39:21.580Z,5.48
2023-04-09T22:41:23.047Z,5.49
2023-04-09T22:43:24.439Z,5.49
2023-04-09T22:45:27.770Z,5.49
2023-04-09T22:47:29.435Z,5.47
2023-04-09T22:49:31.100Z,5.44
2023-04-09T22:51:34.400Z,5.43
2023-04-09T22:53:35.877Z,5.41
2023-04-09T22:55:38.175Z,5.41
2023-04-09T22:57:42.667Z,5.39
2023-04-09T22:59:44.231Z,5.35
2023-04-09T23:01:45.748Z,5.31
2023-04-09T23:03:50.719Z,5.30
2023-04-09T23:05:52.223Z,5.28
2023-04-09T23:07:53.676Z,5.25
2023-04-09T23:09:55.239Z,5.24
2023-04-09T23:11:57.066Z,5.23
2023-04-09T23:13:58.524Z,5.21
2023-04-09T23:15:59.920Z,5.21
2023-04-09T23:18:01.557Z,5.20
2023-04-09T23:20:03.337Z,5.15
2023-04-09T23:22:05.432Z,5.14
2023-04-09T23:24:06.814Z,5.12
2023-04-09T23:26:08.281Z,5.09
2023-04-09T23:28:09.667Z,5.05
2023-04-09T23:30:11.581Z,5.05
2023-04-09T23:32:12.950Z,5.03
2023-04-09T23:34:14.452Z,5.00
2023-04-09T23:36:16.011Z,4.99
2023-04-09T23:38:17.504Z,4.96
2023-04-09T23:40:18.990Z,4.93
2023-04-09T23:42:20.692Z,4.93
2023-04-09T23:44:22.081Z,4.90
2023-04-09T23:46:23.569Z,4.90
2023-04-09T23:48:24.944Z,4.90
2023-04-09T23:50:28.573Z,4.86
2023-04-09T23:52:31.005Z,4.86
2023-04-09T23:54:32.649Z,4.84
2023-04-09T23:56:34.085Z,4.82
2023-04-09T23:58:35.612Z,4.81
